Time;durP1;ratioP1;P1;durP2;ratioP2;P2;SDS_P1;SDS_P2;PMS_P1;PMS_P2;Temp;Humidity;BMP_temperature;BMP_pressure;BME280_temperature;BME280_humidity;BME280_pressure;Samples;Min_cycle;Max_cycle;Signal;HPM_P1;HPM_P2
2022/03/01 00:02:11;;;;;;;0.30;0.10;;;-2.80;97.50;;;;;;5084147;28;20206;-86
2022/03/01 00:04:38;;;;;;;0.30;0.10;;;-2.80;97.60;;;;;;5065700;28;20225;-85
2022/03/01 00:07:07;;;;;;;0.30;0.10;;;-2.90;97.70;;;;;;5068339;28;20212;-87
2022/03/01 00:09:34;;;;;;;0.30;0.10;;;-2.90;97.70;;;;;;5064789;28;20204;-84
2022/03/01 00:12:01;;;;;;;0.30;0.10;;;-2.90;97.60;;;;;;5068010;28;20202;-85
2022/03/01 00:14:29;;;;;;;0.30;0.10;;;-2.90;97.60;;;;;;5065174;28;20258;-85
2022/03/01 00:16:56;;;;;;;0.30;0.10;;;-3.00;97.80;;;;;;5065649;28;20233;-85
2022/03/01 00:19:23;;;;;;;0.30;0.10;;;-3.00;97.90;;;;;;5067804;28;20206;-84
2022/03/01 00:21:50;;;;;;;0.30;0.10;;;-2.90;97.90;;;;;;5068794;28;20201;-84
2022/03/01 00:24:17;;;;;;;0.30;0.10;;;-2.90;97.70;;;;;;5066790;28;20201;-88
2022/03/01 00:26:44;;;;;;;0.30;0.10;;;-2.80;97.50;;;;;;5064200;28;20251;-84
2022/03/01 00:29:12;;;;;;;0.30;0.20;;;-2.80;97.50;;;;;;5061428;28;20259;-84
2022/03/01 00:31:40;;;;;;;0.30;0.10;;;-2.80;97.50;;;;;;5066371;28;20256;-88
2022/03/01 00:34:07;;;;;;;0.30;0.10;;;-2.80;97.50;;;;;;5064875;28;20205;-85
2022/03/01 00:36:36;;;;;;;0.30;0.20;;;-2.80;97.20;;;;;;5067843;28;20587;-86
2022/03/01 00:39:04;;;;;;;0.30;0.10;;;-2.70;97.10;;;;;;5058649;28;20202;-87
2022/03/01 00:41:31;;;;;;;0.30;0.10;;;-2.70;97.00;;;;;;5065179;28;20210;-84
2022/03/01 00:43:58;;;;;;;0.30;0.10;;;-2.80;97.00;;;;;;5060811;28;20205;-87
2022/03/01 00:46:26;;;;;;;0.30;0.10;;;-2.80;97.30;;;;;;5062871;28;20228;-85
2022/03/01 00:48:55;;;;;;;0.30;0.10;;;-2.80;97.40;;;;;;5067074;28;20209;-88
2022/03/01 00:51:22;;;;;;;0.30;0.10;;;-2.80;97.70;;;;;;5062709;28;20656;-86
2022/03/01 00:53:50;;;;;;;0.30;0.20;;;-2.90;97.60;;;;;;5070236;28;20206;-90
2022/03/01 00:56:17;;;;;;;0.30;0.10;;;-2.90;97.70;;;;;;5064903;28;20252;-85
2022/03/01 00:58:44;;;;;;;0.30;0.10;;;-2.90;97.70;;;;;;5064166;28;20570;-85
2022/03/01 01:01:11;;;;;;;0.30;0.10;;;-2.90;98.20;;;;;;5077657;28;20243;-86
2022/03/01 01:03:38;;;;;;;0.30;0.20;;;-3.00;98.30;;;;;;5077071;28;20197;-86
2022/03/01 01:06:07;;;;;;;0.30;0.10;;;-3.00;98.60;;;;;;5064818;28;20283;-87
2022/03/01 01:08:34;;;;;;;0.30;0.10;;;-3.10;98.90;;;;;;5068543;28;20660;-87
2022/03/01 01:11:01;;;;;;;0.30;0.10;;;-3.10;99.10;;;;;;5061794;28;20266;-84
2022/03/01 01:13:29;;;;;;;0.30;0.10;;;-3.10;99.30;;;;;;5065345;28;20312;-89
2022/03/01 01:15:56;;;;;;;0.30;0.10;;;-3.20;99.30;;;;;;5062661;28;20233;-86
2022/03/01 01:18:23;;;;;;;0.30;0.20;;;-3.10;99.40;;;;;;5064485;28;20555;-84
2022/03/01 01:20:50;;;;;;;0.30;0.10;;;-3.20;99.30;;;;;;5060075;28;20656;-85
2022/03/01 01:23:18;;;;;;;0.30;0.10;;;-3.10;99.20;;;;;;5066995;28;20201;-85
2022/03/01 01:25:45;;;;;;;0.30;0.10;;;-3.20;99.10;;;;;;5068481;28;20753;-84
2022/03/01 01:28:12;;;;;;;0.30;0.10;;;-3.20;99.10;;;;;;5067158;28;20201;-85
2022/03/01 01:30:39;;;;;;;0.30;0.20;;;-3.20;98.90;;;;;;5067603;28;20283;-85
2022/03/01 01:33:06;;;;;;;0.30;0.10;;;-3.20;99.00;;;;;;5065767;28;20260;-85
2022/03/01 01:35:36;;;;;;;0.30;0.10;;;-3.20;98.90;;;;;;5067637;28;20221;-87
2022/03/01 01:38:03;;;;;;;0.30;0.10;;;-3.20;98.80;;;;;;5062995;28;20202;-85
2022/03/01 01:40:33;;;;;;;0.30;0.10;;;-3.20;98.90;;;;;;5061172;28;20206;-86
2022/03/01 01:43:01;;;;;;;0.30;0.10;;;-3.20;98.70;;;;;;5058354;28;20217;-86
2022/03/01 01:45:29;;;;;;;0.30;0.10;;;-3.20;99.00;;;;;;5067239;28;20201;-86
2022/03/01 01:47:57;;;;;;;0.30;0.10;;;-3.20;98.90;;;;;;5060607;28;20271;-86
2022/03/01 01:50:25;;;;;;;0.30;0.10;;;-3.20;99.20;;;;;;5066055;28;20202;-87
2022/03/01 01:52:54;;;;;;;0.30;0.20;;;-3.10;99.00;;;;;;5060022;28;20202;-90
2022/03/01 01:55:22;;;;;;;0.30;0.10;;;-3.10;98.90;;;;;;5064271;28;20782;-87
2022/03/01 01:57:50;;;;;;;0.30;0.10;;;-3.20;99.20;;;;;;5068050;28;20275;-89
2022/03/01 02:00:18;;;;;;;0.60;0.57;;;-3.20;99.60;;;;;;5066174;28;20221;-89
2022/03/01 02:02:46;;;;;;;0.30;0.10;;;-3.20;99.80;;;;;;5087869;28;20194;-88
2022/03/01 02:05:13;;;;;;;0.30;0.20;;;-3.20;99.50;;;;;;5068909;28;20210;-87
2022/03/01 02:07:48;;;;;;;0.30;0.10;;;-3.20;99.20;;;;;;5062224;28;20656;-86
2022/03/01 02:10:15;;;;;;;0.30;0.10;;;-3.20;99.00;;;;;;5067376;28;20254;-89
2022/03/01 02:12:42;;;;;;;0.30;0.10;;;-3.20;99.00;;;;;;5069311;28;20274;-89
2022/03/01 02:15:11;;;;;;;0.30;0.10;;;-3.30;99.10;;;;;;5065209;28;20266;-88
2022/03/01 02:17:40;;;;;;;0.30;0.10;;;-3.30;99.30;;;;;;5062610;28;20303;-87
2022/03/01 02:20:11;;;;;;;0.30;0.20;;;-3.40;99.50;;;;;;5067416;28;20287;-90
2022/03/01 02:22:39;;;;;;;0.30;0.10;;;-3.40;99.60;;;;;;5061219;28;20738;-87
2022/03/01 02:25:07;;;;;;;0.30;0.10;;;-3.50;99.60;;;;;;5064646;28;20206;-90
2022/03/01 02:27:34;;;;;;;0.30;0.10;;;-3.50;99.80;;;;;;5068212;28;20202;-87
2022/03/01 02:30:01;;;;;;;0.30;0.20;;;-3.50;99.90;;;;;;5071077;28;20259;-88
2022/03/01 02:32:28;;;;;;;0.30;0.20;;;-3.60;99.90;;;;;;5066343;28;20201;-87
2022/03/01 02:34:55;;;;;;;0.30;0.10;;;-3.60;99.90;;;;;;5066826;28;20820;-86
2022/03/01 02:37:24;;;;;;;0.30;0.10;;;-3.60;99.90;;;;;;5071059;28;20299;-89
2022/03/01 02:39:53;;;;;;;0.30;0.10;;;-3.60;99.90;;;;;;5071285;28;20206;-87
2022/03/01 02:42:20;;;;;;;0.30;0.10;;;-3.60;99.90;;;;;;5068186;28;20265;-92
2022/03/01 02:44:48;;;;;;;0.30;0.10;;;-3.60;99.90;;;;;;5071804;28;20205;-88
2022/03/01 02:47:15;;;;;;;0.30;0.10;;;-3.60;99.90;;;;;;5069350;28;20202;-87
2022/03/01 02:49:42;;;;;;;1.00;0.52;;;-3.60;99.90;;;;;;5065132;28;20210;-88
2022/03/01 02:52:10;;;;;;;0.30;0.10;;;-3.60;99.90;;;;;;5063359;28;20201;-89
2022/03/01 02:54:38;;;;;;;0.30;0.10;;;-3.60;99.90;;;;;;5063423;28;20243;-88
2022/03/01 02:57:06;;;;;;;0.30;0.10;;;-3.70;99.90;;;;;;5068199;28;20217;-87
2022/03/01 02:59:33;;;;;;;0.95;0.90;;;-3.70;99.90;;;;;;5067181;28;20934;-89
2022/03/01 03:02:01;;;;;;;0.30;0.10;;;-3.60;99.90;;;;;;5083316;28;20205;-87
2022/03/01 03:04:28;;;;;;;1.27;0.93;;;-3.70;99.90;;;;;;5083077;28;20257;-88
2022/03/01 03:06:55;;;;;;;1.15;1.05;;;-3.70;99.90;;;;;;5073176;28;20270;-90
2022/03/01 03:09:23;;;;;;;0.30;0.10;;;-3.70;99.90;;;;;;5068406;28;20214;-88
2022/03/01 03:11:52;;;;;;;0.30;0.20;;;-3.60;99.90;;;;;;5068708;28;20202;-90
2022/03/01 03:14:19;;;;;;;0.30;0.10;;;-3.60;99.90;;;;;;5061720;28;20210;-88
2022/03/01 03:16:46;;;;;;;0.55;0.52;;;-3.70;99.90;;;;;;5066690;28;20261;-92
2022/03/01 03:19:15;;;;;;;0.30;0.10;;;-3.70;99.90;;;;;;5064940;28;20262;-88
2022/03/01 03:21:43;;;;;;;0.30;0.10;;;-3.80;99.90;;;;;;5069545;28;20293;-89
2022/03/01 03:24:10;;;;;;;4.70;1.10;;;-3.70;99.90;;;;;;5070088;28;20209;-90
2022/03/01 03:26:38;;;;;;;0.30;0.10;;;-3.70;99.90;;;;;;5068245;28;20262;-88
2022/03/01 03:29:08;;;;;;;0.30;0.10;;;-3.70;99.90;;;;;;5064049;28;20219;-87
2022/03/01 03:31:36;;;;;;;0.30;0.10;;;-3.70;99.90;;;;;;5065674;28;20197;-88
2022/03/01 03:34:03;;;;;;;0.30;0.10;;;-3.80;99.90;;;;;;5067191;28;20288;-90
2022/03/01 03:36:30;;;;;;;0.30;0.10;;;-3.80;99.90;;;;;;5070068;28;20229;-89
2022/03/01 03:38:57;;;;;;;2.00;1.92;;;-3.80;99.90;;;;;;5068373;28;20201;-88
2022/03/01 03:41:24;;;;;;;0.30;0.10;;;-3.80;99.90;;;;;;5070171;28;20221;-88
2022/03/01 03:43:51;;;;;;;0.30;0.10;;;-3.80;99.90;;;;;;5065665;28;20202;-90
2022/03/01 03:46:20;;;;;;;0.30;0.10;;;-3.80;99.90;;;;;;5068363;28;20251;-91
2022/03/01 03:48:48;;;;;;;0.30;0.10;;;-3.80;99.90;;;;;;5068637;28;20615;-88
2022/03/01 03:51:15;;;;;;;0.30;0.10;;;-3.80;99.90;;;;;;5065024;28;20226;-88
2022/03/01 03:53:42;;;;;;;0.30;0.10;;;-3.80;99.90;;;;;;5066047;28;20420;-88
2022/03/01 03:56:09;;;;;;;0.30;0.20;;;-3.80;99.90;;;;;;5060780;28;20208;-87
2022/03/01 03:58:36;;;;;;;0.30;0.15;;;-3.70;99.90;;;;;;5062010;28;20225;-89
2022/03/01 04:01:03;;;;;;;0.30;0.10;;;-3.80;99.90;;;;;;5065516;28;20205;-88
2022/03/01 04:03:32;;;;;;;0.30;0.10;;;-3.80;99.90;;;;;;5085810;28;20202;-88
2022/03/01 04:05:59;;;;;;;3.63;0.82;;;-3.90;99.90;;;;;;5067231;28;20729;-89
2022/03/01 04:08:27;;;;;;;0.30;0.10;;;-3.90;99.90;;;;;;5069013;28;20201;-88
2022/03/01 04:10:56;;;;;;;0.30;0.10;;;-4.00;99.90;;;;;;5068014;28;20216;-87
2022/03/01 04:13:23;;;;;;;0.30;0.10;;;-4.00;99.90;;;;;;5068539;28;20221;-88
2022/03/01 04:15:50;;;;;;;0.30;0.15;;;-4.10;99.90;;;;;;5065480;28;20707;-87
2022/03/01 04:18:18;;;;;;;0.30;0.10;;;-4.10;99.90;;;;;;5065802;28;20639;-90
2022/03/01 04:20:46;;;;;;;0.30;0.10;;;-4.10;99.90;;;;;;5069414;28;20263;-88
2022/03/01 04:23:14;;;;;;;0.30;0.10;;;-4.10;99.90;;;;;;5065003;28;20206;-87
2022/03/01 04:25:41;;;;;;;0.30;0.10;;;-4.10;99.90;;;;;;5066424;28;20369;-90
2022/03/01 04:28:08;;;;;;;0.30;0.10;;;-4.10;99.90;;;;;;5060174;28;20197;-90
2022/03/01 04:30:35;;;;;;;0.30;0.10;;;-4.10;99.90;;;;;;5068729;28;20197;-91
2022/03/01 04:33:02;;;;;;;0.30;0.10;;;-4.20;99.90;;;;;;5065336;28;20209;-88
2022/03/01 04:35:29;;;;;;;0.30;0.10;;;-4.20;99.90;;;;;;5067326;28;20649;-88
2022/03/01 04:37:57;;;;;;;0.30;0.10;;;-4.30;99.90;;;;;;5067767;28;20771;-89
2022/03/01 04:40:24;;;;;;;0.30;0.10;;;-4.20;99.90;;;;;;5068216;28;20201;-87
2022/03/01 04:42:51;;;;;;;0.30;0.10;;;-4.20;99.90;;;;;;5065213;28;20263;-92
2022/03/01 04:45:18;;;;;;;0.30;0.10;;;-4.30;99.90;;;;;;5066483;28;20201;-87
2022/03/01 04:47:45;;;;;;;0.30;0.10;;;-4.30;99.90;;;;;;5065650;28;20258;-89
2022/03/01 04:50:13;;;;;;;0.30;0.15;;;-4.30;99.90;;;;;;5061465;28;20649;-87
2022/03/01 04:52:40;;;;;;;0.30;0.10;;;-4.20;99.90;;;;;;5062745;28;20205;-86
2022/03/01 04:55:10;;;;;;;0.30;0.17;;;-4.20;99.90;;;;;;5059319;28;20198;-90
2022/03/01 04:57:37;;;;;;;0.30;0.10;;;-4.30;99.90;;;;;;5068731;28;20217;-90
2022/03/01 05:00:10;;;;;;;0.30;0.10;;;-4.30;99.90;;;;;;5069875;28;20190;-87
2022/03/01 05:02:38;;;;;;;0.40;0.28;;;-4.30;99.90;;;;;;5090373;28;20192;-88
2022/03/01 05:05:10;;;;;;;0.30;0.10;;;-4.30;99.90;;;;;;5085940;28;20198;-87
2022/03/01 05:07:38;;;;;;;0.30;0.10;;;-4.30;99.90;;;;;;5065965;28;20689;-88
2022/03/01 05:10:06;;;;;;;0.30;0.10;;;-4.20;99.90;;;;;;5066005;28;20197;-87
2022/03/01 05:12:42;;;;;;;0.30;0.10;;;-4.20;99.90;;;;;;5066192;28;20255;-87
2022/03/01 05:15:10;;;;;;;0.30;0.10;;;-4.00;99.90;;;;;;5063444;28;20232;-87
2022/03/01 05:17:37;;;;;;;0.30;0.10;;;-4.00;99.90;;;;;;5061747;28;20230;-91
2022/03/01 05:20:04;;;;;;;0.30;0.10;;;-4.00;99.90;;;;;;5067754;28;20267;-88
2022/03/01 05:22:32;;;;;;;0.30;0.10;;;-4.10;99.90;;;;;;5065716;28;20209;-88
2022/03/01 05:24:59;;;;;;;0.30;0.10;;;-4.10;99.90;;;;;;5063328;28;20247;-89
2022/03/01 05:27:28;;;;;;;0.30;0.10;;;-4.10;99.90;;;;;;5065650;28;20213;-87
2022/03/01 05:29:57;;;;;;;0.30;0.10;;;-4.10;99.90;;;;;;5065108;28;20300;-86
2022/03/01 05:32:24;;;;;;;0.30;0.10;;;-4.10;99.90;;;;;;5065487;28;20684;-86
2022/03/01 05:34:51;;;;;;;0.30;0.20;;;-4.10;99.90;;;;;;5060371;28;20224;-86
2022/03/01 05:37:18;;;;;;;0.30;0.10;;;-4.10;99.90;;;;;;5058029;28;20226;-86
2022/03/01 05:39:45;;;;;;;0.40;0.30;;;-4.20;99.90;;;;;;5068988;28;20639;-90
2022/03/01 05:42:13;;;;;;;0.30;0.20;;;-4.20;99.90;;;;;;5065197;28;20205;-88
2022/03/01 05:44:40;;;;;;;0.30;0.10;;;-4.20;99.90;;;;;;5063446;28;20213;-87
2022/03/01 05:47:08;;;;;;;0.30;0.10;;;-4.20;99.90;;;;;;5065011;28;20202;-88
2022/03/01 05:49:35;;;;;;;0.30;0.10;;;-4.10;99.90;;;;;;5067737;28;20255;-92
2022/03/01 05:52:03;;;;;;;0.30;0.10;;;-4.00;99.90;;;;;;5049414;28;20237;-87
2022/03/01 05:54:30;;;;;;;0.30;0.10;;;-4.00;99.90;;;;;;5058640;28;20197;-87
2022/03/01 05:56:57;;;;;;;0.30;0.10;;;-3.90;99.90;;;;;;5071157;28;20205;-87
2022/03/01 05:59:24;;;;;;;0.30;0.10;;;-3.90;99.90;;;;;;5067564;28;20206;-89
2022/03/01 06:01:51;;;;;;;0.30;0.10;;;-3.90;99.90;;;;;;5070770;28;20315;-88
2022/03/01 06:04:20;;;;;;;0.30;0.20;;;-3.90;99.90;;;;;;5089131;28;20189;-88
2022/03/01 06:06:47;;;;;;;0.30;0.10;;;-3.90;99.90;;;;;;5073982;28;20600;-88
2022/03/01 06:09:14;;;;;;;0.30;0.10;;;-3.90;99.90;;;;;;5072653;28;20206;-89
2022/03/01 06:11:41;;;;;;;0.30;0.10;;;-3.90;99.90;;;;;;5066872;28;20205;-89
2022/03/01 06:14:08;;;;;;;0.30;0.10;;;-3.90;99.90;;;;;;5053876;28;20206;-88
2022/03/01 06:16:35;;;;;;;0.30;0.10;;;-3.90;99.90;;;;;;5066873;28;20224;-90
2022/03/01 06:19:02;;;;;;;0.30;0.10;;;-3.90;99.90;;;;;;5067588;28;20228;-89
2022/03/01 06:21:31;;;;;;;0.30;0.20;;;-3.90;99.90;;;;;;5053662;28;20244;-89
2022/03/01 06:24:00;;;;;;;0.30;0.10;;;-3.90;99.90;;;;;;5054265;28;20214;-88
2022/03/01 06:26:27;;;;;;;0.30;0.20;;;-3.80;99.90;;;;;;5054885;28;20197;-88
2022/03/01 06:28:54;;;;;;;0.30;0.10;;;-3.70;99.90;;;;;;5072759;28;20259;-88
2022/03/01 06:31:21;;;;;;;0.30;0.10;;;-3.60;99.90;;;;;;5071185;28;20208;-90
2022/03/01 06:33:48;;;;;;;0.30;0.10;;;-3.50;99.90;;;;;;5071546;28;20235;-90
2022/03/01 06:36:15;;;;;;;0.30;0.10;;;-3.40;99.90;;;;;;5071370;28;20201;-90
2022/03/01 06:38:44;;;;;;;0.30;0.10;;;-3.30;99.90;;;;;;5067255;28;20230;-88
2022/03/01 06:41:11;;;;;;;0.40;0.40;;;-3.20;99.90;;;;;;5070438;28;20260;-91
2022/03/01 06:43:38;;;;;;;0.30;0.10;;;-3.10;99.90;;;;;;5065702;28;20202;-91
2022/03/01 06:46:05;;;;;;;0.30;0.10;;;-3.00;99.90;;;;;;5065939;28;20266;-92
2022/03/01 06:48:32;;;;;;;0.30;0.10;;;-3.00;99.90;;;;;;5071453;28;20276;-89
2022/03/01 06:50:59;;;;;;;0.30;0.10;;;-3.00;99.90;;;;;;5071472;28;20205;-91
2022/03/01 06:53:26;;;;;;;0.30;0.10;;;-2.90;99.90;;;;;;5051630;28;20260;-87
2022/03/01 06:55:54;;;;;;;0.30;0.20;;;-2.80;99.90;;;;;;5061407;28;20251;-89
2022/03/01 06:58:21;;;;;;;0.30;0.10;;;-2.70;99.90;;;;;;5068652;28;20707;-91
2022/03/01 07:00:53;;;;;;;0.30;0.10;;;-2.70;99.90;;;;;;5057380;28;20260;-88
2022/03/01 07:03:20;;;;;;;0.30;0.10;;;-2.60;99.90;;;;;;5068175;28;20205;-89
2022/03/01 07:05:47;;;;;;;0.30;0.10;;;-2.50;99.90;;;;;;5081803;28;20247;-86
2022/03/01 07:08:14;;;;;;;0.30;0.10;;;-2.40;99.90;;;;;;5064975;28;20206;-87
2022/03/01 07:10:42;;;;;;;0.30;0.10;;;-2.40;99.90;;;;;;5063895;28;20610;-86
2022/03/01 07:13:10;;;;;;;0.40;0.30;;;-2.30;99.90;;;;;;5060212;28;20205;-87
2022/03/01 07:15:38;;;;;;;0.30;0.10;;;-2.20;99.90;;;;;;5060229;28;20609;-84
2022/03/01 07:18:05;;;;;;;0.52;0.52;;;-2.10;99.60;;;;;;5066740;28;20300;-85
2022/03/01 07:20:34;;;;;;;0.30;0.10;;;-2.00;99.40;;;;;;5069512;28;20228;-85
2022/03/01 07:23:01;;;;;;;0.30;0.10;;;-2.00;99.20;;;;;;5070081;28;20679;-85
2022/03/01 07:25:28;;;;;;;0.30;0.10;;;-1.80;98.90;;;;;;5057994;28;20202;-87
2022/03/01 07:27:55;;;;;;;0.30;0.10;;;-1.80;98.40;;;;;;5059815;28;20202;-84
2022/03/01 07:30:27;;;;;;;0.40;0.30;;;-1.80;98.30;;;;;;5061990;28;20198;-85
2022/03/01 07:32:56;;;;;;;0.30;0.10;;;-1.70;98.40;;;;;;5051250;28;20210;-84
2022/03/01 07:35:24;;;;;;;0.30;0.10;;;-1.70;97.70;;;;;;5066911;28;20280;-85
2022/03/01 07:37:52;;;;;;;0.30;0.15;;;-1.60;97.60;;;;;;5070548;28;20218;-86
2022/03/01 07:40:21;;;;;;;0.30;0.20;;;-1.50;97.80;;;;;;5069707;28;20197;-85
2022/03/01 07:42:49;;;;;;;0.30;0.10;;;-1.40;97.90;;;;;;5068876;28;20881;-87
2022/03/01 07:45:16;;;;;;;0.30;0.10;;;-1.20;98.30;;;;;;5069344;28;20660;-86
2022/03/01 07:47:44;;;;;;;0.30;0.10;;;-1.10;97.80;;;;;;5069404;28;20209;-86
2022/03/01 07:50:11;;;;;;;0.30;0.10;;;-1.20;97.60;;;;;;5058753;28;20206;-86
2022/03/01 07:52:39;;;;;;;0.30;0.10;;;-1.20;97.60;;;;;;5050505;28;20202;-85
2022/03/01 07:55:07;;;;;;;0.30;0.17;;;-1.10;97.60;;;;;;5050838;28;20209;-85
2022/03/01 07:57:34;;;;;;;0.30;0.10;;;-1.10;97.20;;;;;;5050193;28;20252;-88
2022/03/01 08:00:01;;;;;;;0.30;0.10;;;-1.10;97.50;;;;;;5050280;28;20598;-85
2022/03/01 08:02:27;;;;;;;0.30;0.10;;;-1.10;97.40;;;;;;5068506;28;20205;-86
2022/03/01 08:04:56;;;;;;;0.30;0.10;;;-1.00;97.30;;;;;;5079879;28;20201;-86
2022/03/01 08:07:24;;;;;;;0.30;0.10;;;-0.80;97.80;;;;;;5071372;28;20214;-85
2022/03/01 08:09:51;;;;;;;0.30;0.20;;;-0.70;97.10;;;;;;5071463;28;20207;-85
2022/03/01 08:12:17;;;;;;;1.30;0.40;;;-0.60;97.00;;;;;;5069123;28;20202;-85
2022/03/01 08:14:44;;;;;;;0.30;0.10;;;-0.60;96.80;;;;;;5065877;28;20199;-85
2022/03/01 08:17:11;;;;;;;0.40;0.28;;;-0.60;96.70;;;;;;5049822;28;20232;-87
2022/03/01 08:19:38;;;;;;;0.40;0.30;;;-0.60;96.80;;;;;;5049818;28;20693;-85
2022/03/01 08:22:07;;;;;;;0.30;0.10;;;-0.40;97.10;;;;;;5049736;28;20198;-86
2022/03/01 08:24:34;;;;;;;0.30;0.10;;;-0.30;96.50;;;;;;5050319;28;20203;-88
2022/03/01 08:27:00;;;;;;;1.73;1.52;;;-0.30;96.50;;;;;;5049778;28;20206;-86
2022/03/01 08:29:29;;;;;;;0.30;0.20;;;-0.30;96.20;;;;;;5059712;28;20660;-86
2022/03/01 08:31:56;;;;;;;0.30;0.20;;;-0.30;95.80;;;;;;5070353;28;20233;-86
2022/03/01 08:34:23;;;;;;;0.30;0.15;;;-0.20;96.30;;;;;;5056293;28;20726;-87
2022/03/01 08:36:50;;;;;;;0.30;0.20;;;-0.20;95.80;;;;;;5049547;28;20651;-85
2022/03/01 08:39:19;;;;;;;0.30;0.10;;;-0.10;95.70;;;;;;5051317;28;20225;-86
2022/03/01 08:41:46;;;;;;;0.30;0.20;;;0.10;95.80;;;;;;5069875;28;20203;-87
2022/03/01 08:44:13;;;;;;;0.30;0.10;;;0.20;95.40;;;;;;5054247;28;20203;-86
2022/03/01 08:46:40;;;;;;;0.80;0.75;;;0.20;95.30;;;;;;5065254;28;20195;-84
2022/03/01 08:49:08;;;;;;;0.55;0.55;;;0.40;95.20;;;;;;5066350;28;20251;-85
2022/03/01 08:51:34;;;;;;;0.40;0.40;;;0.40;95.40;;;;;;5069066;28;20206;-86
2022/03/01 08:54:02;;;;;;;0.40;0.30;;;0.50;95.50;;;;;;5067075;28;20268;-86
2022/03/01 08:56:30;;;;;;;0.30;0.10;;;0.60;94.80;;;;;;5066737;28;20295;-86
2022/03/01 08:58:57;;;;;;;0.30;0.10;;;0.80;94.90;;;;;;5068633;28;20770;-86
2022/03/01 09:01:24;;;;;;;15.85;1.50;;;0.70;94.20;;;;;;5066323;28;20202;-86
2022/03/01 09:03:51;;;;;;;0.30;0.10;;;0.80;94.60;;;;;;5072440;28;20312;-87
2022/03/01 09:06:18;;;;;;;0.30;0.10;;;1.00;94.80;;;;;;5066029;28;20608;-87
2022/03/01 09:08:45;;;;;;;0.30;0.10;;;1.30;94.10;;;;;;5065312;28;20204;-86
2022/03/01 09:11:12;;;;;;;0.47;0.43;;;1.30;93.60;;;;;;5068311;28;20216;-86
2022/03/01 09:13:40;;;;;;;0.30;0.20;;;1.30;93.40;;;;;;5063264;28;20248;-86
2022/03/01 09:16:08;;;;;;;0.30;0.10;;;1.50;94.10;;;;;;5067996;28;20218;-87
2022/03/01 09:18:35;;;;;;;0.30;0.10;;;1.50;93.40;;;;;;5067713;28;21010;-89
2022/03/01 09:21:02;;;;;;;0.30;0.10;;;1.40;93.40;;;;;;5065608;28;20255;-87
2022/03/01 09:23:29;;;;;;;0.30;0.20;;;1.60;93.20;;;;;;5049082;28;20322;-87
2022/03/01 09:25:56;;;;;;;2.38;1.77;;;1.70;93.60;;;;;;5049178;28;20212;-87
2022/03/01 09:28:23;;;;;;;0.30;0.20;;;1.50;92.90;;;;;;5051116;28;20215;-87
2022/03/01 09:30:52;;;;;;;0.57;0.55;;;1.50;92.70;;;;;;5073122;28;20203;-86
2022/03/01 09:33:19;;;;;;;0.30;0.10;;;1.60;93.40;;;;;;5060822;28;20258;-86
2022/03/01 09:35:46;;;;;;;0.30;0.20;;;1.70;93.80;;;;;;5053624;28;20258;-86
2022/03/01 09:38:13;;;;;;;0.30;0.20;;;1.80;93.30;;;;;;5053042;28;20220;-86
2022/03/01 09:40:40;;;;;;;0.40;0.20;;;2.10;93.30;;;;;;5061319;28;20456;-86
2022/03/01 09:43:08;;;;;;;0.60;0.60;;;1.90;92.40;;;;;;5053275;28;20655;-90
2022/03/01 09:45:35;;;;;;;0.30;0.20;;;2.10;93.20;;;;;;5062495;28;20530;-87
2022/03/01 09:48:04;;;;;;;0.30;0.10;;;1.90;91.50;;;;;;5064037;28;20550;-87
2022/03/01 09:50:31;;;;;;;0.30;0.15;;;2.20;92.40;;;;;;5052836;28;20274;-88
2022/03/01 09:53:01;;;;;;;0.30;0.10;;;2.10;91.20;;;;;;5052196;28;20216;-89
2022/03/01 09:55:28;;;;;;;0.30;0.20;;;1.90;91.50;;;;;;5057834;28;20200;-88
2022/03/01 09:57:56;;;;;;;0.30;0.10;;;1.90;91.80;;;;;;5073009;28;20266;-87
2022/03/01 10:00:24;;;;;;;0.30;0.10;;;2.00;92.70;;;;;;5069349;28;20228;-89
2022/03/01 10:02:55;;;;;;;0.38;0.28;;;2.10;92.30;;;;;;5085042;28;20231;-85
2022/03/01 10:05:34;;;;;;;0.30;0.10;;;2.20;91.80;;;;;;5056609;28;20203;-86
2022/03/01 10:08:08;;;;;;;0.30;0.10;;;2.30;91.10;;;;;;5053822;28;20209;-85
2022/03/01 10:10:41;;;;;;;1.00;0.97;;;2.50;92.10;;;;;;5053052;28;20201;-88
2022/03/01 10:13:07;;;;;;;0.30;0.10;;;2.60;91.70;;;;;;5052321;28;20463;-87
2022/03/01 10:15:35;;;;;;;0.40;0.30;;;2.70;91.80;;;;;;5062086;28;20533;-87
2022/03/01 10:18:12;;;;;;;0.30;0.10;;;3.00;91.40;;;;;;5072382;28;20885;-91
2022/03/01 10:20:41;;;;;;;0.30;0.10;;;3.30;91.20;;;;;;5069545;28;20892;-85
2022/03/01 10:23:10;;;;;;;0.30;0.10;;;3.10;89.40;;;;;;5052905;28;20448;-85
2022/03/01 10:25:39;;;;;;;0.30;0.10;;;3.20;89.90;;;;;;5051952;28;20539;-87
2022/03/01 10:28:08;;;;;;;0.30;0.20;;;3.20;90.20;;;;;;5052723;28;20460;-87
2022/03/01 10:30:36;;;;;;;0.30;0.20;;;3.10;89.30;;;;;;5072582;28;20444;-87
2022/03/01 10:33:06;;;;;;;0.30;0.20;;;3.10;87.40;;;;;;5072036;28;20450;-87
2022/03/01 10:35:33;;;;;;;0.30;0.20;;;3.20;87.10;;;;;;5053935;28;20500;-87
2022/03/01 10:38:04;;;;;;;0.30;0.10;;;3.20;87.50;;;;;;5062370;28;20522;-87
2022/03/01 10:40:31;;;;;;;0.30;0.20;;;3.20;87.50;;;;;;5063948;28;20487;-90
2022/03/01 10:43:01;;;;;;;0.30;0.20;;;3.20;87.50;;;;;;5072241;28;20447;-87
2022/03/01 10:45:32;;;;;;;0.30;0.20;;;3.30;88.90;;;;;;5067186;28;20521;-87
2022/03/01 10:47:59;;;;;;;0.30;0.17;;;3.40;85.50;;;;;;5072143;28;20450;-87
2022/03/01 10:50:26;;;;;;;0.40;0.27;;;3.60;89.00;;;;;;5069668;28;21062;-89
2022/03/01 10:52:53;;;;;;;0.30;0.20;;;3.70;87.90;;;;;;5061351;28;20481;-87
2022/03/01 10:55:30;;;;;;;0.30;0.10;;;3.60;84.20;;;;;;5069930;28;20533;-88
2022/03/01 10:57:59;;;;;;;0.50;0.50;;;3.50;86.50;;;;;;5070587;28;20468;-88
2022/03/01 11:00:26;;;;;;;0.30;0.10;;;3.60;85.10;;;;;;5082162;28;20552;-86
2022/03/01 11:02:53;;;;;;;0.30;0.10;;;3.50;82.50;;;;;;5071907;28;20496;-91
2022/03/01 11:05:20;;;;;;;2.03;1.93;;;3.80;83.60;;;;;;5054976;28;20460;-87
2022/03/01 11:07:49;;;;;;;0.30;0.10;;;3.90;81.30;;;;;;5053520;28;20522;-87
2022/03/01 11:10:19;;;;;;;0.30;0.10;;;3.90;82.60;;;;;;5051708;28;20848;-91
2022/03/01 11:12:49;;;;;;;0.30;0.10;;;3.90;81.60;;;;;;5052773;28;20875;-88
2022/03/01 11:15:26;;;;;;;0.30;0.10;;;3.70;79.90;;;;;;5054974;28;20455;-88
2022/03/01 11:18:01;;;;;;;0.30;0.10;;;3.70;79.90;;;;;;5051635;28;21418;-87
2022/03/01 11:20:35;;;;;;;0.30;0.20;;;3.80;80.90;;;;;;5051325;28;20507;-88
2022/03/01 11:23:05;;;;;;;0.30;0.13;;;3.90;79.40;;;;;;5051859;28;20457;-88
2022/03/01 11:25:37;;;;;;;0.30;0.10;;;3.90;78.40;;;;;;5051435;28;20535;-88
2022/03/01 11:28:09;;;;;;;0.30;0.10;;;4.30;78.80;;;;;;5065098;28;20463;-88
2022/03/01 11:30:39;;;;;;;0.30;0.10;;;4.50;78.60;;;;;;5070850;28;20464;-91
2022/03/01 11:33:06;;;;;;;0.40;0.30;;;4.70;78.70;;;;;;5055704;28;20473;-90
2022/03/01 11:35:36;;;;;;;0.30;0.10;;;4.60;75.70;;;;;;5051264;28;20460;-87
2022/03/01 11:38:06;;;;;;;0.30;0.20;;;4.60;76.50;;;;;;5050269;28;20923;-87
2022/03/01 11:40:35;;;;;;;0.60;0.20;;;4.30;76.70;;;;;;5063988;28;20475;-87
2022/03/01 11:43:15;;;;;;;0.30;0.10;;;4.30;75.90;;;;;;5071242;28;20448;-89
2022/03/01 11:45:46;;;;;;;0.30;0.20;;;4.20;78.40;;;;;;5062250;28;20468;-87
2022/03/01 11:48:17;;;;;;;0.30;0.10;;;4.50;79.30;;;;;;5064740;28;20994;-85
2022/03/01 11:50:48;;;;;;;0.30;0.10;;;4.40;76.10;;;;;;5069864;28;20994;-87
2022/03/01 11:53:17;;;;;;;0.30;0.10;;;4.50;75.60;;;;;;5070643;28;20982;-87
2022/03/01 11:55:47;;;;;;;0.30;0.10;;;4.60;77.40;;;;;;5052973;28;20467;-85
2022/03/01 11:58:16;;;;;;;1.07;0.97;;;4.40;75.70;;;;;;5073677;28;21045;-86
2022/03/01 12:00:44;;;;;;;0.40;0.40;;;4.40;76.80;;;;;;5060196;28;20480;-85
2022/03/01 12:03:14;;;;;;;0.30;0.20;;;4.70;77.70;;;;;;5051046;28;21010;-88
2022/03/01 12:05:45;;;;;;;0.40;0.23;;;4.90;75.20;;;;;;5050398;28;20448;-86
2022/03/01 12:08:13;;;;;;;0.30;0.20;;;4.90;74.00;;;;;;5065411;28;20468;-86
2022/03/01 12:10:51;;;;;;;0.30;0.10;;;4.70;73.60;;;;;;5070859;28;20456;-88
2022/03/01 12:13:20;;;;;;;0.30;0.10;;;4.60;72.80;;;;;;5061467;28;21009;-86
2022/03/01 12:15:56;;;;;;;0.83;0.83;;;4.80;74.10;;;;;;5064284;28;20464;-89
2022/03/01 12:18:29;;;;;;;0.30;0.10;;;4.60;71.50;;;;;;5057519;28;20604;-85
2022/03/01 12:21:03;;;;;;;0.30;0.20;;;4.70;69.90;;;;;;5049901;28;21020;-86
2022/03/01 12:23:32;;;;;;;0.30;0.10;;;4.90;73.60;;;;;;5049837;28;20534;-85
2022/03/01 12:26:01;;;;;;;0.30;0.20;;;5.30;73.50;;;;;;5050328;28;20498;-86
2022/03/01 12:28:40;;;;;;;0.30;0.17;;;5.20;69.30;;;;;;5052025;28;20468;-87
2022/03/01 12:31:09;;;;;;;0.30;0.10;;;5.30;69.70;;;;;;5069639;28;20505;-86
2022/03/01 12:33:36;;;;;;;0.30;0.20;;;5.30;65.60;;;;;;5069420;28;20501;-91
2022/03/01 12:36:04;;;;;;;0.30;0.10;;;5.20;67.30;;;;;;5069872;28;20502;-86
2022/03/01 12:38:32;;;;;;;0.30;0.10;;;5.20;65.00;;;;;;5067363;28;20542;-86
2022/03/01 12:41:09;;;;;;;0.30;0.20;;;5.20;64.90;;;;;;5069250;28;20515;-83
2022/03/01 12:43:37;;;;;;;0.30;0.10;;;5.40;66.10;;;;;;5063942;28;20452;-84
2022/03/01 12:46:04;;;;;;;0.37;0.20;;;5.40;61.60;;;;;;5049297;28;20522;-84
2022/03/01 12:48:31;;;;;;;1.33;0.97;;;5.40;59.30;;;;;;5068807;28;20509;-84
2022/03/01 12:50:58;;;;;;;0.30;0.10;;;5.40;61.70;;;;;;5069209;28;20459;-84
2022/03/01 12:53:25;;;;;;;0.30;0.20;;;5.50;63.20;;;;;;5068830;28;20467;-84
2022/03/01 12:55:54;;;;;;;0.30;0.20;;;5.60;62.00;;;;;;5058499;28;20521;-85